createdAt,value
2019-06-26T00:01:07.746Z,1015.45
2019-06-26T00:02:07.779Z,1015.46
2019-06-26T00:04:00.958Z,1015.47
2019-06-26T00:05:01.001Z,1015.49
2019-06-26T00:06:53.993Z,1015.48
2019-06-26T00:07:54.011Z,1015.45
2019-06-26T00:09:47.175Z,1015.47
2019-06-26T00:10:47.213Z,1015.46
2019-06-26T00:12:40.421Z,1015.43
2019-06-26T00:13:40.414Z,1015.41
2019-06-26T00:15:33.807Z,1015.42
2019-06-26T00:16:33.838Z,1015.39
2019-06-26T00:18:26.827Z,1015.40
2019-06-26T00:19:26.846Z,1015.41
2019-06-26T00:21:41.983Z,1015.37
2019-06-26T00:22:42.009Z,1015.41
2019-06-26T00:24:35.106Z,1015.42
2019-06-26T00:25:35.143Z,1015.37
2019-06-26T00:27:28.121Z,1015.42
2019-06-26T00:28:28.155Z,1015.38
2019-06-26T00:30:32.211Z,1015.34
2019-06-26T00:31:32.245Z,1015.37
2019-06-26T00:33:25.331Z,1015.41
2019-06-26T00:34:25.363Z,1015.37
2019-06-26T00:36:18.359Z,1015.37
2019-06-26T00:37:18.377Z,1015.37
2019-06-26T00:39:11.469Z,1015.35
2019-06-26T00:40:11.501Z,1015.35
2019-06-26T00:42:26.702Z,1015.40
2019-06-26T00:43:41.585Z,1015.34
2019-06-26T00:45:19.714Z,1015.39
2019-06-26T00:46:19.748Z,1015.38
2019-06-26T00:48:12.883Z,1015.34
2019-06-26T00:49:12.920Z,1015.33
2019-06-26T00:51:17.053Z,1015.30
2019-06-26T00:52:17.070Z,1015.29
2019-06-26T00:54:32.307Z,1015.31
2019-06-26T00:55:32.246Z,1015.31
2019-06-26T00:57:36.290Z,1015.31
2019-06-26T00:58:36.322Z,1015.34
2019-06-26T01:00:29.442Z,1015.28
2019-06-26T01:01:29.474Z,1015.30
2019-06-26T01:03:33.559Z,1015.28
2019-06-26T01:04:33.596Z,1015.30
2019-06-26T01:06:37.701Z,1015.27
2019-06-26T01:07:37.712Z,1015.28
2019-06-26T01:09:41.776Z,1015.30
2019-06-26T01:10:41.809Z,1015.27
2019-06-26T01:12:34.973Z,1015.21
2019-06-26T01:13:35.008Z,1015.26
2019-06-26T01:15:28.147Z,1015.22
2019-06-26T01:16:28.156Z,1015.22
2019-06-26T01:18:32.245Z,1015.22
2019-06-26T01:20:56.328Z,1015.22
2019-06-26T01:21:56.358Z,1015.22
2019-06-26T01:24:00.445Z,1015.18
2019-06-26T01:25:00.476Z,1015.15
2019-06-26T01:26:53.545Z,1015.18
2019-06-26T01:27:53.538Z,1015.15
2019-06-26T01:29:57.645Z,1015.15
2019-06-26T01:30:57.658Z,1015.17
2019-06-26T01:33:01.748Z,1015.15
2019-06-26T01:34:01.783Z,1015.11
2019-06-26T01:36:05.867Z,1015.15
2019-06-26T01:37:05.900Z,1015.14
2019-06-26T01:39:09.985Z,1015.13
2019-06-26T01:40:10.016Z,1015.18
2019-06-26T01:42:14.230Z,1015.18
2019-06-26T01:43:14.138Z,1015.15
2019-06-26T01:45:18.216Z,1015.15
2019-06-26T01:46:18.248Z,1015.19
2019-06-26T01:48:22.334Z,1015.11
2019-06-26T01:49:22.365Z,1015.16
2019-06-26T01:51:26.453Z,1015.12
2019-06-26T01:52:26.483Z,1015.12
2019-06-26T01:54:31.028Z,1015.12
2019-06-26T01:55:31.065Z,1015.13
2019-06-26T01:56:31.101Z,1015.13
2019-06-26T01:57:31.139Z,1015.13
2019-06-26T01:58:31.178Z,1015.12
2019-06-26T01:59:31.219Z,1015.12
2019-06-26T02:00:31.270Z,1015.13
2019-06-26T02:01:31.296Z,1015.14
2019-06-26T02:02:31.337Z,1015.15
2019-06-26T02:03:31.374Z,1015.12
2019-06-26T02:04:31.416Z,1015.12
2019-06-26T02:05:31.452Z,1015.11
2019-06-26T02:06:31.490Z,1015.12
2019-06-26T02:07:31.530Z,1015.13
2019-06-26T02:08:31.577Z,1015.12
2019-06-26T02:09:31.614Z,1015.10
2019-06-26T02:10:31.654Z,1015.11
2019-06-26T02:11:31.688Z,1015.07
2019-06-26T02:12:31.728Z,1015.05
2019-06-26T02:13:31.788Z,1015.08
2019-06-26T02:14:31.997Z,1015.07
2019-06-26T02:15:31.844Z,1015.04
2019-06-26T02:16:31.882Z,1015.04
2019-06-26T02:17:31.951Z,1015.02
2019-06-26T02:18:31.968Z,1015.04
2019-06-26T02:19:32.001Z,1015.05
2019-06-26T02:20:32.038Z,1015.05
2019-06-26T02:21:32.077Z,1015.07
2019-06-26T02:22:32.117Z,1015.05
2019-06-26T02:23:32.155Z,1015.08
2019-06-26T02:24:32.194Z,1015.04
2019-06-26T02:25:32.234Z,1015.02
2019-06-26T02:26:32.273Z,1015.02
2019-06-26T02:27:32.330Z,1015.01
2019-06-26T02:28:32.350Z,1015.00
2019-06-26T02:29:32.392Z,1015.00
2019-06-26T02:30:32.428Z,1014.97
2019-06-26T02:31:32.470Z,1014.98
2019-06-26T02:32:32.508Z,1014.95
2019-06-26T02:33:32.546Z,1014.93
2019-06-26T02:34:32.583Z,1014.90
2019-06-26T02:35:32.624Z,1014.91
2019-06-26T02:36:32.663Z,1014.87
2019-06-26T02:37:32.701Z,1014.88
2019-06-26T02:38:32.742Z,1014.89
2019-06-26T02:39:32.796Z,1014.85
2019-06-26T02:40:32.819Z,1014.86
2019-06-26T02:41:32.858Z,1014.86
2019-06-26T02:42:32.896Z,1014.84
2019-06-26T02:43:32.936Z,1014.82
2019-06-26T02:44:51.526Z,1014.83
2019-06-26T02:45:33.016Z,1014.81
2019-06-26T02:46:33.052Z,1014.83
2019-06-26T02:47:33.093Z,1014.82
2019-06-26T02:48:33.131Z,1014.82
2019-06-26T02:49:33.170Z,1014.78
2019-06-26T02:50:33.208Z,1014.76
2019-06-26T02:51:33.247Z,1014.78
2019-06-26T02:52:33.286Z,1014.75
2019-06-26T02:53:33.325Z,1014.73
2019-06-26T02:54:33.370Z,1014.70
2019-06-26T02:55:33.403Z,1014.75
2019-06-26T02:56:33.449Z,1014.74
2019-06-26T02:57:33.482Z,1014.70
2019-06-26T02:58:33.522Z,1014.71
2019-06-26T02:59:33.560Z,1014.70
2019-06-26T03:00:33.598Z,1014.70
2019-06-26T03:01:33.637Z,1014.70
2019-06-26T03:02:33.681Z,1014.68
2019-06-26T03:03:33.722Z,1014.70
2019-06-26T03:04:33.754Z,1014.72
2019-06-26T03:05:33.793Z,1014.73
2019-06-26T03:06:33.834Z,1014.68
2019-06-26T03:07:33.872Z,1014.68
2019-06-26T03:08:33.910Z,1014.71
2019-06-26T03:09:33.952Z,1014.66
2019-06-26T03:10:33.988Z,1014.68
2019-06-26T03:11:34.027Z,1014.67
2019-06-26T03:12:34.070Z,1014.66
2019-06-26T03:13:34.105Z,1014.63
2019-06-26T03:14:34.199Z,1014.62
2019-06-26T03:15:34.183Z,1014.65
2019-06-26T03:16:34.221Z,1014.64
2019-06-26T03:17:34.260Z,1014.63
2019-06-26T03:18:34.300Z,1014.67
2019-06-26T03:19:34.338Z,1014.64
2019-06-26T03:20:34.380Z,1014.66
2019-06-26T03:21:34.415Z,1014.68
2019-06-26T03:22:34.456Z,1014.67
2019-06-26T03:23:34.494Z,1014.69
2019-06-26T03:24:34.534Z,1014.70
2019-06-26T03:25:34.573Z,1014.70
2019-06-26T03:26:34.611Z,1014.69
2019-06-26T03:27:34.650Z,1014.69
2019-06-26T03:28:34.704Z,1014.65
2019-06-26T03:29:34.728Z,1014.63
2019-06-26T03:30:34.778Z,1014.67
2019-06-26T03:31:34.809Z,1014.59
2019-06-26T03:32:34.845Z,1014.61
2019-06-26T03:33:34.888Z,1014.67
2019-06-26T03:34:34.929Z,1014.64
2019-06-26T03:35:34.966Z,1014.70
2019-06-26T03:36:35.000Z,1014.76
2019-06-26T03:37:35.056Z,1014.77
2019-06-26T03:38:35.082Z,1014.75
2019-06-26T03:39:35.116Z,1014.76
2019-06-26T03:40:35.156Z,1014.81
2019-06-26T03:41:35.205Z,1014.79
2019-06-26T03:42:35.234Z,1014.76
2019-06-26T03:43:35.724Z,1014.77
2019-06-26T03:44:35.314Z,1014.80
2019-06-26T03:45:35.350Z,1014.78
2019-06-26T03:46:35.398Z,1014.77
2019-06-26T03:47:35.442Z,1014.73
2019-06-26T03:48:35.467Z,1014.76
2019-06-26T03:49:35.508Z,1014.73
2019-06-26T03:50:35.551Z,1014.76
2019-06-26T03:51:35.587Z,1014.77
2019-06-26T03:52:35.622Z,1014.79
2019-06-26T03:53:35.662Z,1014.79
2019-06-26T03:54:35.705Z,1014.83
2019-06-26T03:55:35.740Z,1014.84
2019-06-26T03:56:35.777Z,1014.84
2019-06-26T03:57:35.822Z,1014.86
2019-06-26T03:58:35.857Z,1014.87
2019-06-26T03:59:35.902Z,1014.88
2019-06-26T04:00:35.978Z,1014.90
2019-06-26T04:01:35.974Z,1014.90
2019-06-26T04:02:36.015Z,1014.84
2019-06-26T04:03:36.050Z,1014.90
2019-06-26T04:04:36.089Z,1014.85
2019-06-26T04:05:36.133Z,1014.86
2019-06-26T04:06:36.200Z,1014.86
2019-06-26T04:07:36.205Z,1014.88
2019-06-26T04:08:36.247Z,1014.88
2019-06-26T04:09:36.282Z,1014.89
2019-06-26T04:10:36.322Z,1014.88
2019-06-26T04:11:36.361Z,1014.90
2019-06-26T04:12:36.496Z,1014.89
2019-06-26T04:13:36.438Z,1014.90
2019-06-26T04:14:36.477Z,1014.91
2019-06-26T04:15:42.200Z,1014.96
2019-06-26T04:16:36.554Z,1014.92
2019-06-26T04:17:36.651Z,1014.96
2019-06-26T04:18:36.633Z,1014.96
2019-06-26T04:19:36.672Z,1014.95
2019-06-26T04:20:36.710Z,1014.98
2019-06-26T04:21:36.749Z,1015.02
2019-06-26T04:22:36.791Z,1014.99
2019-06-26T04:23:36.827Z,1014.98
2019-06-26T04:24:36.866Z,1015.00
2019-06-26T04:25:38.285Z,1015.00
2019-06-26T04:26:36.991Z,1015.00
2019-06-26T04:27:36.987Z,1015.00
2019-06-26T04:28:37.022Z,1015.01
2019-06-26T04:29:37.061Z,1015.04
2019-06-26T04:30:37.102Z,1014.99
2019-06-26T04:31:37.143Z,1015.00
2019-06-26T04:32:37.178Z,1015.01
2019-06-26T04:33:37.217Z,1015.05
2019-06-26T04:34:37.257Z,1015.04
2019-06-26T04:35:37.320Z,1015.02
2019-06-26T04:36:37.333Z,1015.00
2019-06-26T04:37:37.388Z,1015.00
2019-06-26T04:38:37.411Z,1014.98
2019-06-26T04:39:37.450Z,1014.98
2019-06-26T04:40:37.489Z,1014.95
2019-06-26T04:41:37.528Z,1014.96
2019-06-26T04:42:37.567Z,1014.94
2019-06-26T04:43:37.607Z,1014.97
2019-06-26T04:44:37.646Z,1014.97
2019-06-26T04:45:37.689Z,1014.95
2019-06-26T04:46:37.724Z,1014.95
2019-06-26T04:47:37.794Z,1014.96
2019-06-26T04:48:37.800Z,1014.98
2019-06-26T04:49:37.841Z,1014.95
2019-06-26T04:50:37.879Z,1014.95
2019-06-26T04:51:37.923Z,1014.93
2019-06-26T04:52:37.958Z,1014.95
2019-06-26T04:53:37.995Z,1014.92
2019-06-26T04:54:38.036Z,1014.94
2019-06-26T04:55:38.074Z,1014.95
2019-06-26T04:56:38.111Z,1014.91
2019-06-26T04:57:38.152Z,1014.95
2019-06-26T04:58:38.190Z,1014.95
2019-06-26T04:59:38.252Z,1014.94
2019-06-26T05:00:38.269Z,1014.94
2019-06-26T05:01:38.307Z,1014.91
2019-06-26T05:02:38.349Z,1014.93
2019-06-26T05:03:38.393Z,1014.90
2019-06-26T05:04:38.426Z,1014.91
2019-06-26T05:05:40.023Z,1014.92
2019-06-26T05:06:38.505Z,1014.92
2019-06-26T05:07:38.551Z,1014.92
2019-06-26T05:08:38.579Z,1014.89
2019-06-26T05:09:38.620Z,1014.91
2019-06-26T05:10:38.663Z,1014.95
2019-06-26T05:11:38.698Z,1014.96
2019-06-26T05:12:38.735Z,1014.99
2019-06-26T05:13:38.776Z,1014.91
2019-06-26T05:14:38.813Z,1014.90
2019-06-26T05:15:38.853Z,1014.89
2019-06-26T05:16:38.892Z,1014.89
2019-06-26T05:17:38.933Z,1014.87
2019-06-26T05:18:38.971Z,1014.88
2019-06-26T05:19:39.011Z,1014.87
2019-06-26T05:20:39.047Z,1014.86
2019-06-26T05:21:39.088Z,1014.85
2019-06-26T05:22:39.128Z,1014.84
2019-06-26T05:23:39.165Z,1014.86
2019-06-26T05:24:39.204Z,1014.84
2019-06-26T05:25:39.243Z,1014.85
2019-06-26T05:26:39.283Z,1014.88
2019-06-26T05:27:39.323Z,1014.89
2019-06-26T05:28:39.361Z,1014.87
2019-06-26T05:29:39.400Z,1014.91
2019-06-26T05:30:39.549Z,1014.93
2019-06-26T05:31:39.477Z,1014.89
2019-06-26T05:32:39.518Z,1014.89
2019-06-26T05:33:39.564Z,1014.91
2019-06-26T05:34:39.594Z,1014.90
2019-06-26T05:35:39.654Z,1014.93
2019-06-26T05:36:39.672Z,1014.89
2019-06-26T05:37:39.711Z,1014.87
2019-06-26T05:38:39.763Z,1014.88
2019-06-26T05:39:39.790Z,1014.86
2019-06-26T05:40:39.830Z,1014.87
2019-06-26T05:41:39.868Z,1014.87
2019-06-26T05:42:39.907Z,1014.86
2019-06-26T05:43:39.946Z,1014.88
2019-06-26T05:44:39.997Z,1014.92
2019-06-26T05:45:40.027Z,1014.92
2019-06-26T05:46:40.243Z,1014.92
2019-06-26T05:47:40.104Z,1014.91
2019-06-26T05:48:40.142Z,1014.93
2019-06-26T05:49:40.183Z,1014.90
2019-06-26T05:50:40.225Z,1014.93
2019-06-26T05:51:40.260Z,1014.94
2019-06-26T05:52:42.722Z,1014.92
2019-06-26T05:53:40.342Z,1014.91
2019-06-26T05:54:40.378Z,1014.89
2019-06-26T05:55:40.419Z,1014.91
2019-06-26T05:56:40.458Z,1014.92
2019-06-26T05:57:41.983Z,1014.89
2019-06-26T05:58:40.537Z,1014.92
2019-06-26T05:59:40.576Z,1014.94
2019-06-26T06:00:40.660Z,1014.89
2019-06-26T06:01:40.652Z,1014.92
2019-06-26T06:02:40.692Z,1014.89
2019-06-26T06:03:40.737Z,1014.93
2019-06-26T06:04:40.772Z,1014.92
2019-06-26T06:05:40.823Z,1014.91
2019-06-26T06:06:42.309Z,1014.91
2019-06-26T06:07:40.890Z,1014.89
2019-06-26T06:08:40.929Z,1014.86
2019-06-26T06:09:40.967Z,1014.87
2019-06-26T06:10:41.008Z,1014.84
2019-06-26T06:11:41.047Z,1014.85
2019-06-26T06:12:41.093Z,1014.88
2019-06-26T06:13:41.125Z,1014.89
2019-06-26T06:14:41.165Z,1014.90
2019-06-26T06:15:41.205Z,1014.90
2019-06-26T06:16:47.512Z,1014.95
2019-06-26T06:17:41.397Z,1014.94
2019-06-26T06:18:41.336Z,1014.93
2019-06-26T06:19:41.363Z,1014.95
2019-06-26T06:20:41.404Z,1014.97
2019-06-26T06:21:41.442Z,1014.98
2019-06-26T06:22:41.483Z,1014.99
2019-06-26T06:23:41.522Z,1014.97
2019-06-26T06:24:41.561Z,1014.99
2019-06-26T06:25:41.603Z,1015.00
2019-06-26T06:26:41.641Z,1015.00
2019-06-26T06:27:41.680Z,1014.98
2019-06-26T06:28:41.723Z,1015.00
2019-06-26T06:29:41.758Z,1015.01
2019-06-26T06:30:41.798Z,1015.00
2019-06-26T06:31:41.839Z,1014.97
2019-06-26T06:32:41.877Z,1014.96
2019-06-26T06:33:41.925Z,1014.97
2019-06-26T06:34:41.960Z,1015.01
2019-06-26T06:35:41.997Z,1015.00
2019-06-26T06:36:42.037Z,1014.99
2019-06-26T06:37:42.076Z,1014.97
2019-06-26T06:38:42.118Z,1015.02
2019-06-26T06:39:42.163Z,1015.01
2019-06-26T06:40:42.198Z,1015.03
2019-06-26T06:41:43.460Z,1014.98
2019-06-26T06:42:42.278Z,1014.97
2019-06-26T06:43:42.315Z,1015.01
2019-06-26T06:44:42.359Z,1015.02
2019-06-26T06:45:42.397Z,1015.00
2019-06-26T06:46:42.463Z,1015.03
2019-06-26T06:47:42.478Z,1015.02
2019-06-26T06:48:42.518Z,1015.02
2019-06-26T06:49:42.554Z,1015.08
2019-06-26T06:50:42.594Z,1015.10
2019-06-26T06:51:42.646Z,1015.03
2019-06-26T06:52:42.678Z,1015.01
2019-06-26T06:53:42.719Z,1015.07
2019-06-26T06:54:42.780Z,1015.04
2019-06-26T06:55:42.795Z,1015.06
2019-06-26T06:56:42.835Z,1015.02
2019-06-26T06:57:42.876Z,1015.03
2019-06-26T06:58:42.942Z,1015.03
2019-06-26T06:59:42.963Z,1015.03
2019-06-26T07:00:43.029Z,1015.09
2019-06-26T07:01:43.035Z,1015.05
2019-06-26T07:02:43.082Z,1015.08
2019-06-26T07:03:43.114Z,1015.09
2019-06-26T07:04:43.158Z,1015.07
2019-06-26T07:05:43.195Z,1015.03
2019-06-26T07:06:43.235Z,1015.05
2019-06-26T07:07:43.292Z,1015.07
2019-06-26T07:08:43.316Z,1015.09
2019-06-26T07:09:43.358Z,1015.14
2019-06-26T07:10:43.399Z,1015.08
2019-06-26T07:11:43.437Z,1015.13
2019-06-26T07:12:43.476Z,1015.12
2019-06-26T07:13:43.521Z,1015.14
2019-06-26T07:14:43.557Z,1015.13
2019-06-26T07:15:43.619Z,1015.15
2019-06-26T07:16:43.660Z,1015.13
2019-06-26T07:17:43.684Z,1015.13
2019-06-26T07:18:43.721Z,1015.10
2019-06-26T07:19:43.766Z,1015.09
2019-06-26T07:20:44.845Z,1015.10
2019-06-26T07:21:43.841Z,1015.05
2019-06-26T07:22:43.892Z,1015.09
2019-06-26T07:23:43.923Z,1015.11
2019-06-26T07:24:43.962Z,1015.09
2019-06-26T07:25:44.010Z,1015.07
2019-06-26T07:26:44.043Z,1015.08
2019-06-26T07:27:44.140Z,1015.12
2019-06-26T07:28:44.123Z,1015.08
2019-06-26T07:29:44.165Z,1015.11
2019-06-26T07:30:44.216Z,1015.06
2019-06-26T07:31:44.252Z,1015.07
2019-06-26T07:32:44.286Z,1015.06
2019-06-26T07:33:44.327Z,1015.07
2019-06-26T07:34:44.369Z,1015.04
2019-06-26T07:35:44.411Z,1015.04
2019-06-26T07:36:44.450Z,1015.09
2019-06-26T07:37:44.489Z,1015.08
2019-06-26T07:38:44.534Z,1015.12
2019-06-26T07:39:44.576Z,1015.09
2019-06-26T07:40:44.617Z,1015.09
2019-06-26T07:41:44.652Z,1015.07
2019-06-26T07:42:44.698Z,1015.10
2019-06-26T07:43:44.738Z,1015.12
2019-06-26T07:44:44.777Z,1015.16
2019-06-26T07:45:44.817Z,1015.17
2019-06-26T07:46:44.857Z,1015.16
2019-06-26T07:47:44.898Z,1015.21
2019-06-26T07:48:44.947Z,1015.17
2019-06-26T07:49:44.986Z,1015.20
2019-06-26T07:50:45.037Z,1015.19
2019-06-26T07:51:45.065Z,1015.22
2019-06-26T07:52:45.115Z,1015.20
2019-06-26T07:53:45.145Z,1015.24
2019-06-26T07:54:45.186Z,1015.16
2019-06-26T07:55:45.231Z,1015.20
2019-06-26T07:56:45.267Z,1015.17
2019-06-26T07:57:45.309Z,1015.18
2019-06-26T07:58:45.358Z,1015.19
2019-06-26T07:59:45.471Z,1015.20
2019-06-26T08:00:45.474Z,1015.21
2019-06-26T08:01:45.477Z,1015.19
2019-06-26T08:02:45.518Z,1015.16
2019-06-26T08:03:45.556Z,1015.22
2019-06-26T08:04:45.602Z,1015.23
2019-06-26T08:05:45.641Z,1015.26
2019-06-26T08:06:45.683Z,1015.24
2019-06-26T08:07:45.724Z,1015.25
2019-06-26T08:08:45.780Z,1015.25
2019-06-26T08:09:45.805Z,1015.29
2019-06-26T08:10:45.865Z,1015.22
2019-06-26T08:11:45.892Z,1015.28
2019-06-26T08:12:45.929Z,1015.23
2019-06-26T08:13:45.973Z,1015.22
2019-06-26T08:14:46.036Z,1015.21
2019-06-26T08:15:46.120Z,1015.27
2019-06-26T08:16:46.103Z,1015.25
2019-06-26T08:18:00.048Z,1015.27
2019-06-26T08:18:46.181Z,1015.29
2019-06-26T08:19:46.249Z,1015.28
2019-06-26T08:20:55.391Z,1015.28
2019-06-26T08:21:46.839Z,1015.25
2019-06-26T08:22:46.345Z,1015.29
2019-06-26T08:23:46.391Z,1015.31
2019-06-26T08:24:46.436Z,1015.28
2019-06-26T08:25:46.483Z,1015.31
2019-06-26T08:26:46.520Z,1015.31
2019-06-26T08:27:46.560Z,1015.31
2019-06-26T08:28:46.597Z,1015.32
2019-06-26T08:29:46.639Z,1015.34
2019-06-26T08:30:46.683Z,1015.34
2019-06-26T08:31:46.723Z,1015.30
2019-06-26T08:32:46.765Z,1015.33
2019-06-26T08:33:46.808Z,1015.32
2019-06-26T08:34:46.856Z,1015.33
2019-06-26T08:35:46.948Z,1015.29
2019-06-26T08:36:46.936Z,1015.31
2019-06-26T08:37:46.976Z,1015.28
2019-06-26T08:38:47.018Z,1015.30
2019-06-26T08:39:47.073Z,1015.32
2019-06-26T08:40:47.106Z,1015.32
2019-06-26T08:41:47.144Z,1015.29
2019-06-26T08:42:47.225Z,1015.28
2019-06-26T08:43:47.229Z,1015.30
2019-06-26T08:44:47.272Z,1015.27
2019-06-26T08:45:47.313Z,1015.29
2019-06-26T08:46:47.356Z,1015.36
2019-06-26T08:47:47.404Z,1015.28
2019-06-26T08:48:51.574Z,1015.30
2019-06-26T08:49:47.486Z,1015.33
2019-06-26T08:50:47.525Z,1015.27
2019-06-26T08:51:47.599Z,1015.31
2019-06-26T08:52:47.610Z,1015.32
2019-06-26T08:53:47.653Z,1015.31
2019-06-26T08:54:47.695Z,1015.33
2019-06-26T08:55:47.741Z,1015.31
2019-06-26T08:56:47.786Z,1015.30
2019-06-26T08:57:47.823Z,1015.29
2019-06-26T08:58:47.867Z,1015.28
2019-06-26T08:59:47.917Z,1015.22
2019-06-26T09:00:47.952Z,1015.27
2019-06-26T09:01:47.993Z,1015.28
2019-06-26T09:02:48.038Z,1015.26
2019-06-26T09:03:48.084Z,1015.29
2019-06-26T09:04:48.121Z,1015.28
2019-06-26T09:05:48.823Z,1015.32
2019-06-26T09:06:48.217Z,1015.30
2019-06-26T09:07:48.257Z,1015.32
2019-06-26T09:08:48.294Z,1015.31
2019-06-26T09:09:48.336Z,1015.30
2019-06-26T09:10:48.381Z,1015.29
2019-06-26T09:11:48.422Z,1015.39
2019-06-26T09:12:48.466Z,1015.32
2019-06-26T09:13:48.510Z,1015.33
2019-06-26T09:14:48.552Z,1015.38
2019-06-26T09:15:49.915Z,1015.40
2019-06-26T09:16:48.638Z,1015.34
2019-06-26T09:17:48.682Z,1015.35
2019-06-26T09:18:48.724Z,1015.36
2019-06-26T09:19:48.772Z,1015.34
2019-06-26T09:20:48.811Z,1015.35
2019-06-26T09:21:48.854Z,1015.39
2019-06-26T09:22:48.900Z,1015.35
2019-06-26T09:23:48.953Z,1015.33
2019-06-26T09:24:48.984Z,1015.30
2019-06-26T09:25:49.028Z,1015.31
2019-06-26T09:26:49.072Z,1015.34
2019-06-26T09:27:49.116Z,1015.33
2019-06-26T09:28:49.200Z,1015.32
2019-06-26T09:29:49.205Z,1015.31
2019-06-26T09:30:49.555Z,1015.27
2019-06-26T09:31:49.287Z,1015.29
2019-06-26T09:32:49.331Z,1015.29
2019-06-26T09:33:49.374Z,1015.30
2019-06-26T09:34:49.423Z,1015.27
2019-06-26T09:35:49.462Z,1015.24
2019-06-26T09:36:49.504Z,1015.25
2019-06-26T09:37:49.570Z,1015.26
2019-06-26T09:38:49.594Z,1015.26
2019-06-26T09:39:49.637Z,1015.24
2019-06-26T09:40:49.680Z,1015.25
2019-06-26T09:41:49.723Z,1015.24
2019-06-26T09:42:49.775Z,1015.26
2019-06-26T09:43:49.812Z,1015.22
2019-06-26T09:44:49.869Z,1015.21
2019-06-26T09:45:49.898Z,1015.24
2019-06-26T09:46:49.949Z,1015.25
2019-06-26T09:47:50.015Z,1015.20
2019-06-26T09:48:53.090Z,1015.20
2019-06-26T09:49:50.074Z,1015.17
2019-06-26T09:50:50.122Z,1015.15
2019-06-26T09:51:50.161Z,1015.16
2019-06-26T09:52:50.205Z,1015.17
2019-06-26T09:53:50.249Z,1015.18
2019-06-26T09:54:50.296Z,1015.17
2019-06-26T09:55:50.339Z,1015.15
2019-06-26T09:56:50.381Z,1015.11
2019-06-26T09:57:50.425Z,1015.15
2019-06-26T09:58:50.524Z,1015.15
2019-06-26T09:59:50.518Z,1015.12
2019-06-26T10:00:50.558Z,1015.14
2019-06-26T10:01:50.601Z,1015.18
2019-06-26T10:02:50.684Z,1015.18
2019-06-26T10:03:50.690Z,1015.21
2019-06-26T10:04:50.865Z,1015.16
2019-06-26T10:05:50.778Z,1015.12
2019-06-26T10:06:50.855Z,1015.11
2019-06-26T10:07:50.867Z,1015.16
2019-06-26T10:08:54.149Z,1015.13
2019-06-26T10:09:50.955Z,1015.11
2019-06-26T10:10:50.998Z,1015.10
2019-06-26T10:11:51.044Z,1015.09
2019-06-26T10:12:51.098Z,1015.14
2019-06-26T10:13:51.131Z,1015.10
2019-06-26T10:14:51.174Z,1015.18
2019-06-26T10:15:51.230Z,1015.15
2019-06-26T10:16:51.263Z,1015.15
2019-06-26T10:17:51.308Z,1015.09
2019-06-26T10:19:05.641Z,1015.08
2019-06-26T10:19:54.022Z,1015.08
2019-06-26T10:20:51.443Z,1015.13
2019-06-26T10:21:51.493Z,1015.11
2019-06-26T10:22:51.560Z,1015.06
2019-06-26T10:23:51.575Z,1015.13
2019-06-26T10:24:51.619Z,1015.09
2019-06-26T10:25:51.673Z,1015.06
2019-06-26T10:26:51.708Z,1015.04
2019-06-26T10:27:51.752Z,1015.06
2019-06-26T10:28:51.812Z,1015.05
2019-06-26T10:29:51.856Z,1015.04
2019-06-26T10:30:51.895Z,1015.03
2019-06-26T10:31:51.930Z,1015.07
2019-06-26T10:32:51.973Z,1014.99
2019-06-26T10:33:52.018Z,1015.12
2019-06-26T10:34:52.112Z,1015.06
2019-06-26T10:35:52.109Z,1015.01
2019-06-26T10:36:52.158Z,1015.08
2019-06-26T10:37:52.197Z,1015.08
2019-06-26T10:38:52.242Z,1015.08
2019-06-26T10:39:52.286Z,1015.03
2019-06-26T10:40:52.336Z,1015.05
2019-06-26T10:41:54.901Z,1015.00
2019-06-26T10:42:52.434Z,1015.02
2019-06-26T10:43:52.533Z,1015.05
2019-06-26T10:44:52.523Z,1014.98
2019-06-26T10:45:52.567Z,1014.99
2019-06-26T10:46:52.618Z,1014.96
2019-06-26T10:47:52.646Z,1015.01
2019-06-26T10:48:52.692Z,1014.99
2019-06-26T10:49:52.734Z,1014.97
2019-06-26T10:50:58.251Z,1014.95
2019-06-26T10:51:52.828Z,1014.93
2019-06-26T10:52:52.871Z,1014.92
2019-06-26T10:53:52.915Z,1014.88
2019-06-26T10:54:52.965Z,1014.86
2019-06-26T10:55:53.008Z,1014.86
2019-06-26T10:56:53.050Z,1014.89
2019-06-26T10:57:53.095Z,1014.82
2019-06-26T10:58:53.156Z,1014.88
2019-06-26T10:59:55.688Z,1014.84
2019-06-26T11:00:53.232Z,1014.78
2019-06-26T11:01:53.275Z,1014.80
2019-06-26T11:02:53.322Z,1014.83
2019-06-26T11:03:53.365Z,1014.86
2019-06-26T11:04:53.410Z,1014.81
2019-06-26T11:05:53.467Z,1014.77
2019-06-26T11:06:53.499Z,1014.77
2019-06-26T11:07:53.545Z,1014.81
2019-06-26T11:08:53.606Z,1014.72
2019-06-26T11:09:53.638Z,1014.69
2019-06-26T11:10:53.682Z,1014.78
2019-06-26T11:11:53.726Z,1014.66
2019-06-26T11:12:53.774Z,1014.70
2019-06-26T11:13:53.816Z,1014.69
2019-06-26T11:14:53.863Z,1014.68
2019-06-26T11:15:53.907Z,1014.70
2019-06-26T11:16:53.950Z,1014.66
2019-06-26T11:17:53.998Z,1014.62
2019-06-26T11:18:54.042Z,1014.64
2019-06-26T11:19:55.529Z,1014.60
2019-06-26T11:20:54.131Z,1014.63
2019-06-26T11:21:54.182Z,1014.60
2019-06-26T11:22:54.226Z,1014.57
2019-06-26T11:23:54.268Z,1014.57
2019-06-26T11:24:54.312Z,1014.56
2019-06-26T11:25:54.365Z,1014.58
2019-06-26T11:26:54.404Z,1014.62
2019-06-26T11:27:54.452Z,1014.64
2019-06-26T11:28:54.554Z,1014.62
2019-06-26T11:29:54.543Z,1014.57
2019-06-26T11:30:54.585Z,1014.63
2019-06-26T11:31:54.632Z,1014.58
2019-06-26T11:32:54.680Z,1014.58
2019-06-26T11:33:54.722Z,1014.58
2019-06-26T11:34:54.768Z,1014.57
2019-06-26T11:35:54.813Z,1014.45
2019-06-26T11:37:03.898Z,1014.49
2019-06-26T11:37:54.905Z,1014.51
2019-06-26T11:38:54.949Z,1014.49
2019-06-26T11:39:55.048Z,1014.49
2019-06-26T11:40:55.123Z,1014.51
2019-06-26T11:41:55.099Z,1014.45
2019-06-26T11:42:55.133Z,1014.45
2019-06-26T11:43:55.184Z,1014.47
2019-06-26T11:44:55.222Z,1014.48
2019-06-26T11:45:55.269Z,1014.46
2019-06-26T11:46:55.321Z,1014.44
2019-06-26T11:47:55.359Z,1014.46
2019-06-26T11:48:55.408Z,1014.43
2019-06-26T11:49:59.940Z,1014.40
2019-06-26T11:50:55.498Z,1014.42
2019-06-26T11:51:55.542Z,1014.36
2019-06-26T11:52:55.602Z,1014.36
2019-06-26T11:53:58.222Z,1014.39
2019-06-26T11:55:02.622Z,1014.36
2019-06-26T11:55:55.727Z,1014.35
2019-06-26T11:56:55.780Z,1014.48
2019-06-26T11:57:55.814Z,1014.36
2019-06-26T11:58:55.862Z,1014.39
2019-06-26T11:59:55.908Z,1014.39
2019-06-26T12:00:55.984Z,1014.41
2019-06-26T12:01:56.002Z,1014.43
2019-06-26T12:02:56.042Z,1014.46
2019-06-26T12:03:56.100Z,1014.42
2019-06-26T12:04:56.148Z,1014.45
2019-06-26T12:06:11.935Z,1014.36
2019-06-26T12:06:56.226Z,1014.32
2019-06-26T12:07:56.272Z,1014.37
2019-06-26T12:08:56.320Z,1014.34
2019-06-26T12:09:56.433Z,1014.40
2019-06-26T12:10:56.409Z,1014.41
2019-06-26T12:11:56.480Z,1014.39
2019-06-26T12:12:56.512Z,1014.35
2019-06-26T12:13:56.548Z,1014.41
2019-06-26T12:14:56.607Z,1014.32
2019-06-26T12:15:56.637Z,1014.36
2019-06-26T12:16:56.683Z,1014.35
2019-06-26T12:17:56.731Z,1014.34
2019-06-26T12:18:56.775Z,1014.32
2019-06-26T12:19:56.826Z,1014.33
2019-06-26T12:20:56.872Z,1014.31
2019-06-26T12:21:56.913Z,1014.34
2019-06-26T12:22:56.959Z,1014.33
2019-06-26T12:23:57.004Z,1014.34
2019-06-26T12:24:57.050Z,1014.41
2019-06-26T12:25:57.096Z,1014.36
2019-06-26T12:26:57.159Z,1014.41
2019-06-26T12:27:57.188Z,1014.41
2019-06-26T12:28:57.237Z,1014.40
2019-06-26T12:29:57.280Z,1014.37
2019-06-26T12:30:57.325Z,1014.40
2019-06-26T12:31:57.415Z,1014.44
2019-06-26T12:33:03.386Z,1014.47
2019-06-26T12:33:57.465Z,1014.40
2019-06-26T12:34:57.512Z,1014.33
2019-06-26T12:35:57.557Z,1014.37
2019-06-26T12:36:57.603Z,1014.44
2019-06-26T12:37:57.647Z,1014.41
2019-06-26T12:38:57.694Z,1014.43
2019-06-26T12:39:57.740Z,1014.38
2019-06-26T12:40:57.866Z,1014.41
2019-06-26T12:41:57.831Z,1014.41
2019-06-26T12:42:57.880Z,1014.32
2019-06-26T12:43:57.923Z,1014.34
2019-06-26T12:44:57.987Z,1014.41